sensor_id;sensor_type;location;lat;lon;timestamp;pressure;altitude;pressure_sealevel;temperature;humidity
48652;BME280;34442;52.362;-1.302;2023-02-18T00:00:17;100732.75;;;11.76;100.00
48652;BME280;34442;52.362;-1.302;2023-02-18T00:02:44;100719.94;;;11.78;100.00
48652;BME280;34442;52.362;-1.302;2023-02-18T00:05:12;100717.84;;;11.74;100.00
48652;BME280;34442;52.362;-1.302;2023-02-18T00:07:39;100708.94;;;11.73;100.00
48652;BME280;34442;52.362;-1.302;2023-02-18T00:10:07;100716.59;;;11.76;100.00
48652;BME280;34442;52.362;-1.302;2023-02-18T00:12:34;100729.44;;;11.67;100.00
48652;BME280;34442;52.362;-1.302;2023-02-18T00:15:00;100719.50;;;11.75;100.00
48652;BME280;34442;52.362;-1.302;2023-02-18T00:17:27;100708.13;;;11.79;100.00
48652;BME280;34442;52.362;-1.302;2023-02-18T00:19:53;100714.97;;;11.68;100.00
48652;BME280;34442;52.362;-1.302;2023-02-18T00:22:18;100711.63;;;11.80;100.00
48652;BME280;34442;52.362;-1.302;2023-02-18T00:24:44;100716.22;;;11.73;100.00
48652;BME280;34442;52.362;-1.302;2023-02-18T00:27:09;100712.28;;;11.82;100.00
48652;BME280;34442;52.362;-1.302;2023-02-18T00:29:34;100715.38;;;11.79;100.00
48652;BME280;34442;52.362;-1.302;2023-02-18T00:32:00;100709.00;;;11.86;100.00
48652;BME280;34442;52.362;-1.302;2023-02-18T00:34:25;100708.75;;;11.81;100.00
48652;BME280;34442;52.362;-1.302;2023-02-18T00:36:51;100704.38;;;11.74;100.00
48652;BME280;34442;52.362;-1.302;2023-02-18T00:39:16;100702.94;;;11.71;100.00
48652;BME280;34442;52.362;-1.302;2023-02-18T00:41:42;100702.75;;;11.73;100.00
48652;BME280;34442;52.362;-1.302;2023-02-18T00:44:09;100696.72;;;11.71;100.00
48652;BME280;34442;52.362;-1.302;2023-02-18T00:46:35;100692.38;;;11.70;100.00
48652;BME280;34442;52.362;-1.302;2023-02-18T00:49:02;100687.81;;;11.70;100.00
48652;BME280;34442;52.362;-1.302;2023-02-18T00:51:28;100688.00;;;11.75;100.00
48652;BME280;34442;52.362;-1.302;2023-02-18T00:53:53;100684.91;;;11.72;100.00
48652;BME280;34442;52.362;-1.302;2023-02-18T00:56:19;100665.44;;;11.70;100.00
48652;BME280;34442;52.362;-1.302;2023-02-18T00:58:45;100665.84;;;11.73;100.00
48652;BME280;34442;52.362;-1.302;2023-02-18T01:01:10;100675.16;;;11.71;100.00
48652;BME280;34442;52.362;-1.302;2023-02-18T01:03:38;100661.91;;;11.69;100.00
48652;BME280;34442;52.362;-1.302;2023-02-18T01:06:05;100657.56;;;11.61;100.00
48652;BME280;34442;52.362;-1.302;2023-02-18T01:08:31;100655.69;;;11.62;100.00
48652;BME280;34442;52.362;-1.302;2023-02-18T01:10:57;100654.88;;;11.75;100.00
48652;BME280;34442;52.362;-1.302;2023-02-18T01:13:24;100645.75;;;11.69;100.00
48652;BME280;34442;52.362;-1.302;2023-02-18T01:15:52;100642.44;;;11.67;100.00
48652;BME280;34442;52.362;-1.302;2023-02-18T01:18:18;100635.41;;;11.66;100.00
48652;BME280;34442;52.362;-1.302;2023-02-18T01:20:45;100632.91;;;11.64;100.00
48652;BME280;34442;52.362;-1.302;2023-02-18T01:23:11;100624.41;;;11.67;100.00
48652;BME280;34442;52.362;-1.302;2023-02-18T01:25:37;100623.38;;;11.62;100.00
48652;BME280;34442;52.362;-1.302;2023-02-18T01:28:04;100607.00;;;11.50;100.00
48652;BME280;34442;52.362;-1.302;2023-02-18T01:30:30;100607.22;;;11.49;100.00
48652;BME280;34442;52.362;-1.302;2023-02-18T01:32:56;100603.28;;;11.38;100.00
48652;BME280;34442;52.362;-1.302;2023-02-18T01:35:22;100596.44;;;11.35;100.00
48652;BME280;34442;52.362;-1.302;2023-02-18T01:37:49;100590.25;;;11.28;100.00
48652;BME280;34442;52.362;-1.302;2023-02-18T01:40:17;100594.38;;;11.31;100.00
48652;BME280;34442;52.362;-1.302;2023-02-18T01:42:44;100603.47;;;11.30;100.00
48652;BME280;34442;52.362;-1.302;2023-02-18T01:47:58;100593.13;;;11.20;100.00
48652;BME280;34442;52.362;-1.302;2023-02-18T01:50:25;100584.63;;;11.16;100.00
48652;BME280;34442;52.362;-1.302;2023-02-18T01:52:51;100583.19;;;11.14;100.00
48652;BME280;34442;52.362;-1.302;2023-02-18T01:55:17;100596.03;;;11.12;100.00
48652;BME280;34442;52.362;-1.302;2023-02-18T01:57:42;100590.66;;;11.12;100.00
48652;BME280;34442;52.362;-1.302;2023-02-18T02:00:13;100585.66;;;11.09;100.00
48652;BME280;34442;52.362;-1.302;2023-02-18T02:02:43;100601.38;;;11.05;100.00
48652;BME280;34442;52.362;-1.302;2023-02-18T02:05:10;100602.63;;;11.03;100.00
48652;BME280;34442;52.362;-1.302;2023-02-18T02:07:36;100596.22;;;11.04;100.00
48652;BME280;34442;52.362;-1.302;2023-02-18T02:10:02;100602.03;;;11.07;100.00
48652;BME280;34442;52.362;-1.302;2023-02-18T02:15:50;100597.03;;;11.11;100.00
48652;BME280;34442;52.362;-1.302;2023-02-18T02:32:35;100595.38;;;11.10;100.00
48652;BME280;34442;52.362;-1.302;2023-02-18T02:35:21;100593.94;;;11.07;100.00
48652;BME280;34442;52.362;-1.302;2023-02-18T02:40:54;100593.72;;;11.09;100.00
48652;BME280;34442;52.362;-1.302;2023-02-18T02:46:34;100588.53;;;11.01;100.00
48652;BME280;34442;52.362;-1.302;2023-02-18T02:51:37;100581.09;;;10.96;100.00
48652;BME280;34442;52.362;-1.302;2023-02-18T02:56:43;100574.50;;;10.99;100.00
48652;BME280;34442;52.362;-1.302;2023-02-18T02:59:13;100564.97;;;11.03;100.00
48652;BME280;34442;52.362;-1.302;2023-02-18T03:01:59;100547.16;;;10.95;100.00
48652;BME280;34442;52.362;-1.302;2023-02-18T03:10:13;100540.94;;;10.88;100.00
48652;BME280;34442;52.362;-1.302;2023-02-18T03:12:57;100536.38;;;10.88;100.00
48652;BME280;34442;52.362;-1.302;2023-02-18T03:18:04;100520.66;;;10.85;100.00
48652;BME280;34442;52.362;-1.302;2023-02-18T03:20:38;100503.91;;;10.83;100.00
48652;BME280;34442;52.362;-1.302;2023-02-18T03:23:10;100508.22;;;10.78;100.00
48652;BME280;34442;52.362;-1.302;2023-02-18T03:25:38;100523.13;;;10.80;100.00
48652;BME280;34442;52.362;-1.302;2023-02-18T03:28:07;100522.72;;;10.83;100.00
48652;BME280;34442;52.362;-1.302;2023-02-18T03:30:55;100519.22;;;10.83;100.00
48652;BME280;34442;52.362;-1.302;2023-02-18T03:33:27;100522.09;;;10.81;100.00
48652;BME280;34442;52.362;-1.302;2023-02-18T03:35:58;100508.84;;;10.80;100.00
48652;BME280;34442;52.362;-1.302;2023-02-18T03:38:41;100497.91;;;10.75;100.00
48652;BME280;34442;52.362;-1.302;2023-02-18T03:41:08;100490.44;;;10.70;100.00
48652;BME280;34442;52.362;-1.302;2023-02-18T03:43:34;100496.84;;;10.69;100.00
48652;BME280;34442;52.362;-1.302;2023-02-18T03:45:59;100497.88;;;10.68;100.00
48652;BME280;34442;52.362;-1.302;2023-02-18T03:48:25;100491.88;;;10.66;100.00
48652;BME280;34442;52.362;-1.302;2023-02-18T03:50:51;100468.50;;;10.66;100.00
48652;BME280;34442;52.362;-1.302;2023-02-18T03:53:16;100466.00;;;10.65;100.00
48652;BME280;34442;52.362;-1.302;2023-02-18T03:55:42;100474.72;;;10.67;100.00
48652;BME280;34442;52.362;-1.302;2023-02-18T03:58:07;100459.19;;;10.62;100.00
48652;BME280;34442;52.362;-1.302;2023-02-18T04:00:33;100468.28;;;10.61;100.00
48652;BME280;34442;52.362;-1.302;2023-02-18T04:02:58;100472.41;;;10.57;100.00
48652;BME280;34442;52.362;-1.302;2023-02-18T04:05:23;100478.22;;;10.54;100.00
48652;BME280;34442;52.362;-1.302;2023-02-18T04:07:49;100479.03;;;10.55;100.00
48652;BME280;34442;52.362;-1.302;2023-02-18T04:10:15;100480.66;;;10.42;100.00
48652;BME280;34442;52.362;-1.302;2023-02-18T04:12:40;100477.38;;;10.60;100.00
48652;BME280;34442;52.362;-1.302;2023-02-18T04:15:06;100479.66;;;10.57;100.00
48652;BME280;34442;52.362;-1.302;2023-02-18T04:17:32;100478.44;;;10.66;100.00
48652;BME280;34442;52.362;-1.302;2023-02-18T04:19:58;100480.06;;;10.60;100.00
48652;BME280;34442;52.362;-1.302;2023-02-18T04:22:24;100481.31;;;10.58;100.00
48652;BME280;34442;52.362;-1.302;2023-02-18T04:24:49;100490.41;;;10.50;100.00
48652;BME280;34442;52.362;-1.302;2023-02-18T04:27:14;100483.16;;;10.57;100.00
48652;BME280;34442;52.362;-1.302;2023-02-18T04:29:40;100476.34;;;10.55;100.00
48652;BME280;34442;52.362;-1.302;2023-02-18T04:32:05;100482.97;;;10.59;100.00
48652;BME280;34442;52.362;-1.302;2023-02-18T04:34:30;100488.94;;;10.48;100.00
48652;BME280;34442;52.362;-1.302;2023-02-18T04:36:56;100475.94;;;10.58;100.00
48652;BME280;34442;52.362;-1.302;2023-02-18T04:39:22;100476.38;;;10.68;100.00
48652;BME280;34442;52.362;-1.302;2023-02-18T04:41:47;100476.81;;;10.78;100.00
48652;BME280;34442;52.362;-1.302;2023-02-18T04:44:13;100480.09;;;10.67;100.00
48652;BME280;34442;52.362;-1.302;2023-02-18T04:46:38;100483.84;;;10.79;100.00
48652;BME280;34442;52.362;-1.302;2023-02-18T04:49:03;100481.56;;;10.83;100.00
48652;BME280;34442;52.362;-1.302;2023-02-18T04:51:29;100482.78;;;10.74;100.00
48652;BME280;34442;52.362;-1.302;2023-02-18T04:53:54;100485.06;;;10.83;100.00
48652;BME280;34442;52.362;-1.302;2023-02-18T04:56:19;100497.69;;;10.83;100.00
48652;BME280;34442;52.362;-1.302;2023-02-18T04:58:45;100488.16;;;10.80;100.00
48652;BME280;34442;52.362;-1.302;2023-02-18T05:01:11;100490.44;;;10.77;100.00
48652;BME280;34442;52.362;-1.302;2023-02-18T05:03:37;100485.06;;;10.77;100.00
48652;BME280;34442;52.362;-1.302;2023-02-18T05:06:02;100492.50;;;10.68;100.00
48652;BME280;34442;52.362;-1.302;2023-02-18T05:08:28;100487.97;;;10.75;100.00
48652;BME280;34442;52.362;-1.302;2023-02-18T05:10:54;100494.59;;;10.79;100.00
48652;BME280;34442;52.362;-1.302;2023-02-18T05:13:19;100500.78;;;10.80;100.00
48652;BME280;34442;52.362;-1.302;2023-02-18T05:15:48;100497.91;;;10.75;100.00
48652;BME280;34442;52.362;-1.302;2023-02-18T05:18:14;100497.69;;;10.76;100.00
48652;BME280;34442;52.362;-1.302;2023-02-18T05:20:39;100480.94;;;10.81;100.00
48652;BME280;34442;52.362;-1.302;2023-02-18T05:23:05;100483.41;;;10.69;100.00
48652;BME280;34442;52.362;-1.302;2023-02-18T05:25:30;100480.53;;;10.71;100.00
48652;BME280;34442;52.362;-1.302;2023-02-18T05:27:56;100481.94;;;10.73;100.00
48652;BME280;34442;52.362;-1.302;2023-02-18T05:30:21;100480.31;;;10.72;100.00
48652;BME280;34442;52.362;-1.302;2023-02-18T05:32:47;100475.94;;;10.78;100.00
48652;BME280;34442;52.362;-1.302;2023-02-18T05:35:12;100474.72;;;10.80;100.00
48652;BME280;34442;52.362;-1.302;2023-02-18T05:37:38;100468.31;;;10.81;100.00
48652;BME280;34442;52.362;-1.302;2023-02-18T05:40:06;100462.50;;;10.78;100.00
48652;BME280;34442;52.362;-1.302;2023-02-18T05:42:32;100468.75;;;10.78;100.00
48652;BME280;34442;52.362;-1.302;2023-02-18T05:44:57;100474.72;;;10.80;100.00
48652;BME280;34442;52.362;-1.302;2023-02-18T05:47:23;100470.38;;;10.73;100.00
48652;BME280;34442;52.362;-1.302;2023-02-18T05:49:49;100464.78;;;10.81;100.00
48652;BME280;34442;52.362;-1.302;2023-02-18T05:52:16;100467.69;;;10.92;100.00
48652;BME280;34442;52.362;-1.302;2023-02-18T05:54:41;100473.06;;;10.92;100.00
48652;BME280;34442;52.362;-1.302;2023-02-18T05:57:12;100462.09;;;10.94;100.00
48652;BME280;34442;52.362;-1.302;2023-02-18T05:59:38;100472.03;;;10.80;100.00
48652;BME280;34442;52.362;-1.302;2023-02-18T06:02:03;100454.06;;;10.87;100.00
48652;BME280;34442;52.362;-1.302;2023-02-18T06:04:29;100459.84;;;10.84;100.00
48652;BME280;34442;52.362;-1.302;2023-02-18T06:06:55;100452.41;;;10.86;100.00
48652;BME280;34442;52.362;-1.302;2023-02-18T06:09:21;100448.44;;;10.69;100.00
48652;BME280;34442;52.362;-1.302;2023-02-18T06:11:46;100448.69;;;10.74;100.00
48652;BME280;34442;52.362;-1.302;2023-02-18T06:14:11;100443.47;;;10.73;100.00
48652;BME280;34442;52.362;-1.302;2023-02-18T06:16:37;100441.63;;;10.66;100.00
48652;BME280;34442;52.362;-1.302;2023-02-18T06:19:02;100447.00;;;10.60;100.00
48652;BME280;34442;52.362;-1.302;2023-02-18T06:21:28;100437.69;;;10.62;100.00
48652;BME280;34442;52.362;-1.302;2023-02-18T06:23:53;100438.31;;;10.64;100.00
48652;BME280;34442;52.362;-1.302;2023-02-18T06:26:19;100435.22;;;10.74;100.00
48652;BME280;34442;52.362;-1.302;2023-02-18T06:28:44;100424.69;;;10.79;100.00
48652;BME280;34442;52.362;-1.302;2023-02-18T06:31:10;100422.19;;;10.84;100.00
48652;BME280;34442;52.362;-1.302;2023-02-18T06:33:35;100417.44;;;10.80;100.00
48652;BME280;34442;52.362;-1.302;2023-02-18T06:36:05;100421.34;;;10.77;100.00
48652;BME280;34442;52.362;-1.302;2023-02-18T06:38:32;100416.59;;;10.79;100.00
48652;BME280;34442;52.362;-1.302;2023-02-18T06:40:58;100423.63;;;10.80;100.00
48652;BME280;34442;52.362;-1.302;2023-02-18T06:43:24;100398.19;;;10.83;100.00
48652;BME280;34442;52.362;-1.302;2023-02-18T06:45:50;100386.59;;;10.89;100.00
48652;BME280;34442;52.362;-1.302;2023-02-18T06:48:16;100402.50;;;10.97;100.00
48652;BME280;34442;52.362;-1.302;2023-02-18T06:50:42;100396.94;;;10.92;100.00
48652;BME280;34442;52.362;-1.302;2023-02-18T06:53:08;100407.28;;;10.88;100.00
48652;BME280;34442;52.362;-1.302;2023-02-18T06:55:33;100413.50;;;10.96;100.00
48652;BME280;34442;52.362;-1.302;2023-02-18T06:57:59;100410.19;;;11.00;100.00
48652;BME280;34442;52.362;-1.302;2023-02-18T07:00:24;100410.16;;;11.13;100.00
48652;BME280;34442;52.362;-1.302;2023-02-18T07:02:50;100402.53;;;11.04;100.00
48652;BME280;34442;52.362;-1.302;2023-02-18T07:05:15;100412.25;;;11.11;100.00
48652;BME280;34442;52.362;-1.302;2023-02-18T07:07:41;100417.19;;;11.14;100.00
48652;BME280;34442;52.362;-1.302;2023-02-18T07:10:10;100414.09;;;10.98;100.00
48652;BME280;34442;52.362;-1.302;2023-02-18T07:12:35;100422.38;;;10.96;100.00
48652;BME280;34442;52.362;-1.302;2023-02-18T07:15:01;100413.91;;;10.99;100.00
48652;BME280;34442;52.362;-1.302;2023-02-18T07:17:26;100411.81;;;11.01;100.00
48652;BME280;34442;52.362;-1.302;2023-02-18T07:19:52;100412.03;;;11.00;100.00
48652;BME280;34442;52.362;-1.302;2023-02-18T07:22:17;100409.31;;;11.06;100.00
48652;BME280;34442;52.362;-1.302;2023-02-18T07:24:43;100410.78;;;11.09;100.00
48652;BME280;34442;52.362;-1.302;2023-02-18T07:27:08;100412.63;;;11.15;100.00
48652;BME280;34442;52.362;-1.302;2023-02-18T07:29:34;100424.66;;;11.06;100.00
48652;BME280;34442;52.362;-1.302;2023-02-18T07:31:59;100425.88;;;11.16;100.00
48652;BME280;34442;52.362;-1.302;2023-02-18T07:34:25;100430.63;;;11.21;100.00
48652;BME280;34442;52.362;-1.302;2023-02-18T07:36:50;100425.66;;;11.25;100.00
48652;BME280;34442;52.362;-1.302;2023-02-18T07:39:16;100430.00;;;11.26;100.00
48652;BME280;34442;52.362;-1.302;2023-02-18T07:41:46;100429.59;;;11.29;100.00
48652;BME280;34442;52.362;-1.302;2023-02-18T07:44:12;100409.53;;;11.18;100.00
48652;BME280;34442;52.362;-1.302;2023-02-18T07:46:39;100412.81;;;11.33;100.00
48652;BME280;34442;52.362;-1.302;2023-02-18T07:49:05;100420.47;;;11.30;100.00
48652;BME280;34442;52.362;-1.302;2023-02-18T07:51:31;100426.72;;;11.24;100.00
48652;BME280;34442;52.362;-1.302;2023-02-18T07:53:56;100443.06;;;11.15;100.00
48652;BME280;34442;52.362;-1.302;2023-02-18T07:56:21;100424.41;;;11.27;100.00
48652;BME280;34442;52.362;-1.302;2023-02-18T07:58:47;100429.38;;;11.30;100.00
48652;BME280;34442;52.362;-1.302;2023-02-18T08:01:13;100437.84;;;11.27;100.00
48652;BME280;34442;52.362;-1.302;2023-02-18T08:03:39;100447.81;;;11.33;100.00
48652;BME280;34442;52.362;-1.302;2023-02-18T08:06:06;100449.63;;;11.39;100.00
48652;BME280;34442;52.362;-1.302;2023-02-18T08:08:32;100457.72;;;11.46;100.00
48652;BME280;34442;52.362;-1.302;2023-02-18T08:11:00;100457.09;;;11.44;100.00
48652;BME280;34442;52.362;-1.302;2023-02-18T08:13:31;100458.72;;;11.58;100.00
48652;BME280;34442;52.362;-1.302;2023-02-18T08:15:56;100477.34;;;11.60;100.00
48652;BME280;34442;52.362;-1.302;2023-02-18T08:18:24;100476.56;;;11.53;100.00
48652;BME280;34442;52.362;-1.302;2023-02-18T08:20:50;100480.88;;;11.60;100.00
48652;BME280;34442;52.362;-1.302;2023-02-18T08:23:19;100467.63;;;11.59;100.00
48652;BME280;34442;52.362;-1.302;2023-02-18T08:25:47;100475.09;;;11.57;100.00
48652;BME280;34442;52.362;-1.302;2023-02-18T08:28:13;100480.44;;;11.70;100.00
48652;BME280;34442;52.362;-1.302;2023-02-18T08:30:38;100471.94;;;11.73;100.00
48652;BME280;34442;52.362;-1.302;2023-02-18T08:33:08;100482.06;;;11.78;100.00
48652;BME280;34442;52.362;-1.302;2023-02-18T08:35:33;100483.50;;;11.80;100.00
48652;BME280;34442;52.362;-1.302;2023-02-18T08:37:58;100476.50;;;11.86;100.00
48652;BME280;34442;52.362;-1.302;2023-02-18T08:40:24;100486.44;;;11.85;100.00
48652;BME280;34442;52.362;-1.302;2023-02-18T08:42:50;100494.47;;;11.92;100.00
48652;BME280;34442;52.362;-1.302;2023-02-18T08:45:15;100499.00;;;12.05;100.00
48652;BME280;34442;52.362;-1.302;2023-02-18T08:47:40;100498.16;;;12.04;100.00
48652;BME280;34442;52.362;-1.302;2023-02-18T08:50:06;100493.25;;;11.95;100.00
48652;BME280;34442;52.362;-1.302;2023-02-18T08:52:31;100488.66;;;12.02;100.00
48652;BME280;34442;52.362;-1.302;2023-02-18T08:54:57;100489.25;;;12.10;100.00
48652;BME280;34442;52.362;-1.302;2023-02-18T08:57:22;100501.91;;;12.10;100.00
48652;BME280;34442;52.362;-1.302;2023-02-18T08:59:48;100503.47;;;12.24;100.00
48652;BME280;34442;52.362;-1.302;2023-02-18T09:02:14;100504.63;;;12.41;100.00
48652;BME280;34442;52.362;-1.302;2023-02-18T09:04:39;100496.88;;;12.20;100.00
48652;BME280;34442;52.362;-1.302;2023-02-18T09:07:05;100516.31;;;12.29;100.00
48652;BME280;34442;52.362;-1.302;2023-02-18T09:09:31;100522.56;;;12.23;100.00
48652;BME280;34442;52.362;-1.302;2023-02-18T09:11:56;100521.94;;;12.21;100.00
48652;BME280;34442;52.362;-1.302;2023-02-18T09:14:22;100519.22;;;12.27;100.00
48652;BME280;34442;52.362;-1.302;2023-02-18T09:16:47;100524.38;;;12.35;100.00
48652;BME280;34442;52.362;-1.302;2023-02-18T09:19:15;100533.53;;;12.34;100.00
48652;BME280;34442;52.362;-1.302;2023-02-18T09:21:40;100542.19;;;12.36;100.00
48652;BME280;34442;52.362;-1.302;2023-02-18T09:24:06;100540.78;;;12.27;100.00
48652;BME280;34442;52.362;-1.302;2023-02-18T09:26:31;100549.47;;;12.29;100.00
48652;BME280;34442;52.362;-1.302;2023-02-18T09:28:57;100555.28;;;12.33;100.00
48652;BME280;34442;52.362;-1.302;2023-02-18T09:31:24;100550.28;;;12.43;100.00
48652;BME280;34442;52.362;-1.302;2023-02-18T09:33:53;100557.50;;;12.42;100.00
48652;BME280;34442;52.362;-1.302;2023-02-18T09:36:22;100556.88;;;12.47;100.00
48652;BME280;34442;52.362;-1.302;2023-02-18T09:38:49;100551.88;;;12.51;100.00
48652;BME280;34442;52.362;-1.302;2023-02-18T09:41:26;100544.97;;;12.61;100.00
48652;BME280;34442;52.362;-1.302;2023-02-18T09:43:58;100555.13;;;12.66;100.00
48652;BME280;34442;52.362;-1.302;2023-02-18T09:46:30;100550.25;;;12.81;100.00
48652;BME280;34442;52.362;-1.302;2023-02-18T09:48:59;100548.63;;;12.80;100.00
48652;BME280;34442;52.362;-1.302;2023-02-18T09:51:25;100547.69;;;12.93;100.00
48652;BME280;34442;52.362;-1.302;2023-02-18T09:53:51;100563.84;;;13.00;100.00
48652;BME280;34442;52.362;-1.302;2023-02-18T09:56:26;100559.88;;;13.02;100.00
48652;BME280;34442;52.362;-1.302;2023-02-18T09:58:53;100557.84;;;12.98;100.00
48652;BME280;34442;52.362;-1.302;2023-02-18T10:01:32;100551.34;;;13.05;100.00
48652;BME280;34442;52.362;-1.302;2023-02-18T10:04:03;100550.47;;;13.11;100.00
48652;BME280;34442;52.362;-1.302;2023-02-18T10:06:33;100548.50;;;13.00;100.00
48652;BME280;34442;52.362;-1.302;2023-02-18T10:09:03;100556.38;;;12.95;100.00
48652;BME280;34442;52.362;-1.302;2023-02-18T10:11:32;100553.50;;;12.97;100.00
48652;BME280;34442;52.362;-1.302;2023-02-18T10:14:00;100554.66;;;12.76;100.00
48652;BME280;34442;52.362;-1.302;2023-02-18T10:16:27;100567.19;;;12.95;100.00
48652;BME280;34442;52.362;-1.302;2023-02-18T10:18:55;100571.56;;;12.96;100.00
48652;BME280;34442;52.362;-1.302;2023-02-18T10:21:25;100567.84;;;12.90;100.00
48652;BME280;34442;52.362;-1.302;2023-02-18T10:24:00;100581.97;;;12.86;100.00
48652;BME280;34442;52.362;-1.302;2023-02-18T10:26:29;100578.22;;;12.87;100.00
48652;BME280;34442;52.362;-1.302;2023-02-18T10:28:56;100568.66;;;12.91;100.00
48652;BME280;34442;52.362;-1.302;2023-02-18T10:31:30;100569.47;;;12.98;100.00
48652;BME280;34442;52.362;-1.302;2023-02-18T10:36:53;100565.97;;;13.29;100.00
48652;BME280;34442;52.362;-1.302;2023-02-18T10:42:00;100569.00;;;13.33;100.00
48652;BME280;34442;52.362;-1.302;2023-02-18T10:52:39;100581.59;;;13.46;100.00
48652;BME280;34442;52.362;-1.302;2023-02-18T10:55:14;100578.78;;;13.59;100.00
48652;BME280;34442;52.362;-1.302;2023-02-18T10:58:00;100580.31;;;13.73;100.00
48652;BME280;34442;52.362;-1.302;2023-02-18T11:00:34;100578.06;;;13.70;100.00
48652;BME280;34442;52.362;-1.302;2023-02-18T11:03:14;100585.50;;;13.75;100.00
48652;BME280;34442;52.362;-1.302;2023-02-18T11:05:40;100584.88;;;13.73;100.00
48652;BME280;34442;52.362;-1.302;2023-02-18T11:08:09;100577.75;;;13.78;100.00
48652;BME280;34442;52.362;-1.302;2023-02-18T11:10:39;100587.06;;;13.82;100.00
48652;BME280;34442;52.362;-1.302;2023-02-18T11:13:07;100578.75;;;13.84;100.00
48652;BME280;34442;52.362;-1.302;2023-02-18T11:15:33;100578.22;;;13.75;100.00
48652;BME280;34442;52.362;-1.302;2023-02-18T11:20:59;100588.03;;;13.70;100.00
48652;BME280;34442;52.362;-1.302;2023-02-18T11:23:28;100577.72;;;13.60;100.00
48652;BME280;34442;52.362;-1.302;2023-02-18T11:26:04;100588.78;;;13.58;100.00
48652;BME280;34442;52.362;-1.302;2023-02-18T11:31:07;100592.56;;;13.51;100.00
48652;BME280;34442;52.362;-1.302;2023-02-18T11:33:38;100599.91;;;13.44;100.00
48652;BME280;34442;52.362;-1.302;2023-02-18T11:38:43;100610.59;;;13.57;100.00
48652;BME280;34442;52.362;-1.302;2023-02-18T11:41:30;100616.72;;;13.71;100.00
48652;BME280;34442;52.362;-1.302;2023-02-18T11:43:58;100623.22;;;13.88;100.00
48652;BME280;34442;52.362;-1.302;2023-02-18T11:46:25;100617.63;;;14.08;100.00
48652;BME280;34442;52.362;-1.302;2023-02-18T11:48:52;100615.81;;;14.20;100.00
48652;BME280;34442;52.362;-1.302;2023-02-18T11:51:27;100618.34;;;13.97;100.00
48652;BME280;34442;52.362;-1.302;2023-02-18T11:53:58;100621.63;;;13.99;100.00
48652;BME280;34442;52.362;-1.302;2023-02-18T11:56:27;100624.28;;;14.05;100.00
48652;BME280;34442;52.362;-1.302;2023-02-18T11:58:53;100621.53;;;14.12;100.00
48652;BME280;34442;52.362;-1.302;2023-02-18T12:04:15;100621.22;;;14.20;100.00
48652;BME280;34442;52.362;-1.302;2023-02-18T12:09:28;100604.28;;;14.06;100.00
48652;BME280;34442;52.362;-1.302;2023-02-18T12:12:10;100606.09;;;13.94;100.00
48652;BME280;34442;52.362;-1.302;2023-02-18T12:14:37;100600.84;;;13.99;100.00
48652;BME280;34442;52.362;-1.302;2023-02-18T12:17:14;100591.69;;;14.19;100.00
48652;BME280;34442;52.362;-1.302;2023-02-18T12:19:51;100585.47;;;14.55;100.00
48652;BME280;34442;52.362;-1.302;2023-02-18T12:22:42;100587.09;;;14.74;100.00
48652;BME280;34442;52.362;-1.302;2023-02-18T12:25:35;100587.69;;;14.76;100.00
48652;BME280;34442;52.362;-1.302;2023-02-18T12:31:03;100559.91;;;14.51;100.00
48652;BME280;34442;52.362;-1.302;2023-02-18T12:39:20;100568.16;;;14.56;100.00
48652;BME280;34442;52.362;-1.302;2023-02-18T12:42:12;100568.91;;;14.63;100.00
48652;BME280;34442;52.362;-1.302;2023-02-18T12:50:21;100585.25;;;14.86;100.00
48652;BME280;34442;52.362;-1.302;2023-02-18T12:56:08;100575.03;;;15.42;100.00
48652;BME280;34442;52.362;-1.302;2023-02-18T13:01:35;100573.25;;;15.24;100.00
48652;BME280;34442;52.362;-1.302;2023-02-18T13:04:26;100559.56;;;15.19;100.00
48652;BME280;34442;52.362;-1.302;2023-02-18T13:07:02;100558.16;;;15.17;100.00
48652;BME280;34442;52.362;-1.302;2023-02-18T13:15:30;100555.84;;;14.60;100.00
48652;BME280;34442;52.362;-1.302;2023-02-18T13:18:07;100549.22;;;14.56;100.00
48652;BME280;34442;52.362;-1.302;2023-02-18T13:20:50;100557.50;;;14.61;100.00
48652;BME280;34442;52.362;-1.302;2023-02-18T13:23:37;100551.22;;;14.49;100.00
48652;BME280;34442;52.362;-1.302;2023-02-18T13:26:05;100550.31;;;14.36;100.00
48652;BME280;34442;52.362;-1.302;2023-02-18T13:28:45;100541.22;;;14.31;100.00
48652;BME280;34442;52.362;-1.302;2023-02-18T13:34:14;100540.44;;;14.60;100.00
48652;BME280;34442;52.362;-1.302;2023-02-18T13:39:18;100540.56;;;14.96;100.00
48652;BME280;34442;52.362;-1.302;2023-02-18T13:41:47;100529.50;;;14.97;100.00
48652;BME280;34442;52.362;-1.302;2023-02-18T13:46:52;100537.81;;;14.84;100.00
48652;BME280;34442;52.362;-1.302;2023-02-18T13:49:24;100538.31;;;14.93;100.00
48652;BME280;34442;52.362;-1.302;2023-02-18T13:51:54;100533.97;;;14.92;100.00
48652;BME280;34442;52.362;-1.302;2023-02-18T13:54:37;100541.47;;;14.78;100.00
48652;BME280;34442;52.362;-1.302;2023-02-18T13:57:12;100532.03;;;14.80;100.00
48652;BME280;34442;52.362;-1.302;2023-02-18T14:04:54;100533.50;;;14.64;100.00
48652;BME280;34442;52.362;-1.302;2023-02-18T14:10:03;100531.97;;;14.57;100.00
48652;BME280;34442;52.362;-1.302;2023-02-18T14:14:54;100514.84;;;14.75;100.00
48652;BME280;34442;52.362;-1.302;2023-02-18T14:20:21;100524.78;;;14.93;100.00
48652;BME280;34442;52.362;-1.302;2023-02-18T14:22:46;100513.56;;;14.77;100.00
48652;BME280;34442;52.362;-1.302;2023-02-18T14:25:37;100509.94;;;14.83;100.00
48652;BME280;34442;52.362;-1.302;2023-02-18T14:33:30;100503.19;;;14.74;100.00
48652;BME280;34442;52.362;-1.302;2023-02-18T14:36:20;100502.59;;;14.72;100.00